Patuxent River Naval Air Station/Trapnell Field Aiport
KNHK : rendu visible

Aérodrome :











RETROUVEZ-NOUS SUR...

 
LOGIN :

S'inscrire | Disclaimer

   EN    FR    IT 

 









Légende :    VFR   VFR Marginal   IFR   IFR Intensif   IFR Très Intensif
Visi : 
Plafond : 
>= 8 km
>= 3000ft
5 à 8 km
1000 à 3000 ft
1500m à 5 km
500 à 1000 ft
800 à 1500m
200 à 500 ft
< 800m
< 200 ft
Symboles :   Orages  Brouillard  Fortes neiges  Fortes précipitations  Vent > 20 kt






- Altitude de l'aérodrome : 39 ft


KNHK - Patuxent River Naval Air Station/Trapnell Field Aiport

DERNIER METAR :
  • 120952Z AUTO 22012G17KT 10SM FEW120 15/05 A2980 RMK AO2 SLP090 T01500050

METARs EXPIRÉS :
  • 120852Z AUTO 22010G15KT 10SM FEW120 15/05 A2980 RMK AO2 SLP089 T01500050 56008
  • 120752Z AUTO 23010KT 10SM CLR 15/04 A2980 RMK AO2 SLP092 T01500044

TAF TAF KNHK
Valide du 12 à 07h jusqu'au 13 à 07h UTC


1207/1307 22015G25KT 9999 FEW100 BKN150 OVC250 QNH2977INS
BECMG 1211/1212 8000 -RA SCT010 BKN020 OVC030 QNH2982INS
TEMPO 1212/1215 1600 +RA BKN010 OVC030
BECMG 1214/1215 33016G25KT 4800 RA SCT010 BKN020 OVC040 QNH2992INS
TEMPO 1215/1221 1600 +RA BKN010 OVC030
BECMG 1220/1222 9999 NSW FEW030 SCT030 SCT250 QNH2997INS AUTOMATED SENSOR METWATCH 1207 TIL 1209 T13/1207Z T00/1307Z FN00197



MET'MAP, la Météo Aéronautique d'un coup d'oeil ! - Copyright ORBIFLY Décembre 2007 - Disclaimer

ORBIFLY MET'MAP TEAM :

Programmation & Développement : Alexandra Zaïnal
Conception & Développement : Baudouin d'Aumeries
Co-Programmation & Développement : Marc-Olivier Méhu
Soutien technique & logistique : Manuel Goepfert

Contact : metmap@orbifly.com




SOURCES & CREDITS :

   NOAA       Earth
Advisory